CheckWX is a tool to help pilots better visualize weather data.  It is not intended as a substitute for an official pre-flight weather briefing.

01:06:42 UTC

FNSA METAR
Saurimo Airport
Saurimo, Angola
Current

10 hours ago

FNSA 231500Z 27006KT CAVOK 27/16 Q1016
Observed
Feb-23 @ 15:00 UTC
Wind
  • 270° at 6 KTS
Visibility
10,000+ meters
Flight Rules
VFR
Cloud Levels
  • Clear skies
Temperature
27°C / 81°F
Dewpoint
16°C / 61°F
Humidity
51%
Altimeter
30" Hg
Pressure
1015.92 hPa
Previous

11 hours ago

FNSA 231400Z 27006KT CAVOK 27/17 Q1016
Observed
Feb-23 @ 14:00 UTC
Wind
  • 270° at 6 KTS
Visibility
10,000+ meters
Flight Rules
VFR
Cloud Levels
  • Clear skies
Temperature
27°C / 81°F
Dewpoint
17°C / 63°F
Humidity
54%
Altimeter
30" Hg
Pressure
1015.92 hPa
Previous

12 hours ago

FNSA 231300Z 27005KT CAVOK 23/18 Q1017
Observed
Feb-23 @ 13:00 UTC
Wind
  • 270° at 5 KTS
Visibility
10,000+ meters
Flight Rules
VFR
Cloud Levels
  • Clear skies
Temperature
23°C / 73°F
Dewpoint
18°C / 64°F
Humidity
74%
Altimeter
30.03" Hg
Pressure
1016.92 hPa